Time;durP1;ratioP1;P1;durP2;ratioP2;P2;SDS_P1;SDS_P2;PMS_P1;PMS_P2;Temp;Humidity;BMP_temperature;BMP_pressure;BME280_temperature;BME280_humidity;BME280_pressure;Samples;Min_cycle;Max_cycle;Signal;HPM_P1;HPM_P2
2021/11/03 00:01:11;;;;;;;63.40;30.10;;;;;;;6.98;100.00;96984.78;5044018;28;20072;-84
2021/11/03 00:03:37;;;;;;;47.40;25.50;;;;;;;7.13;100.00;96996.38;5023789;28;20033;-84
2021/11/03 00:06:02;;;;;;;49.13;24.55;;;;;;;7.16;100.00;97011.31;5040972;28;20025;-82
2021/11/03 00:08:29;;;;;;;48.20;24.95;;;;;;;7.28;100.00;97011.47;5024334;28;20411;-83
2021/11/03 00:10:56;;;;;;;46.80;25.08;;;;;;;7.26;100.00;97004.53;5024827;28;20022;-82
2021/11/03 00:13:23;;;;;;;43.03;23.08;;;;;;;7.38;100.00;97025.09;5032701;28;20040;-83
2021/11/03 00:15:50;;;;;;;42.35;23.08;;;;;;;7.34;100.00;97026.19;5034995;28;20104;-83
2021/11/03 00:18:16;;;;;;;46.80;23.05;;;;;;;7.31;100.00;97010.41;5029964;28;20028;-83
2021/11/03 00:20:42;;;;;;;42.35;21.65;;;;;;;7.40;100.00;97031.16;5042205;28;20033;-83
2021/11/03 00:23:07;;;;;;;61.38;28.33;;;;;;;7.37;100.00;97036.66;5026301;28;20504;-83
2021/11/03 00:25:37;;;;;;;66.05;33.38;;;;;;;7.24;100.00;97043.63;5038339;28;20488;-83
2021/11/03 00:28:03;;;;;;;59.85;32.13;;;;;;;7.05;100.00;97031.38;5043628;28;20036;-83
2021/11/03 00:30:29;;;;;;;67.28;34.13;;;;;;;6.96;100.00;97031.88;5030604;28;20057;-84
2021/11/03 00:32:55;;;;;;;65.50;33.92;;;;;;;6.79;100.00;97024.00;5034630;28;20040;-84
2021/11/03 00:35:20;;;;;;;60.20;31.17;;;;;;;6.80;100.00;97025.69;5023794;28;20036;-83
2021/11/03 00:37:46;;;;;;;56.13;28.30;;;;;;;6.83;100.00;97025.53;5026225;28;20094;-82
2021/11/03 00:40:21;;;;;;;50.42;27.27;;;;;;;6.86;100.00;97041.31;5046340;28;20032;-84
2021/11/03 00:50:01;;;;;;;47.63;25.77;;;;;;;6.52;100.00;97006.94;4935498;29;20051;-83
2021/11/03 00:52:26;;;;;;;51.78;23.95;;;;;;;6.71;100.00;97031.53;4932938;29;20043;-83
2021/11/03 00:54:52;;;;;;;46.65;24.48;;;;;;;6.72;100.00;97033.25;4958917;28;20452;-83
2021/11/03 00:57:17;;;;;;;47.10;27.05;;;;;;;6.73;100.00;97034.13;5015806;28;20051;-83
2021/11/03 00:59:43;;;;;;;47.67;24.50;;;;;;;6.73;100.00;97040.28;5026341;28;20476;-84
2021/11/03 01:02:09;;;;;;;46.05;24.52;;;;;;;6.86;100.00;97040.47;5029946;28;20024;-82
2021/11/03 01:04:35;;;;;;;45.33;23.85;;;;;;;6.89;100.00;97041.13;5027160;28;20484;-82
2021/11/03 01:07:01;;;;;;;38.70;20.63;;;;;;;6.87;100.00;97048.34;5033859;28;20124;-81
2021/11/03 01:09:27;;;;;;;51.10;27.13;;;;;;;6.91;100.00;97049.91;5022449;28;20507;-83
2021/11/03 01:11:53;;;;;;;54.78;28.80;;;;;;;6.72;100.00;97043.03;5024917;28;20028;-83
2021/11/03 01:14:19;;;;;;;47.20;24.65;;;;;;;6.73;100.00;97058.91;5019826;28;20503;-82
2021/11/03 01:16:45;;;;;;;46.08;24.60;;;;;;;6.72;100.00;97053.66;5038698;28;20483;-84
2021/11/03 01:19:11;;;;;;;44.22;23.95;;;;;;;6.71;100.00;97063.41;5038396;28;20121;-84
2021/11/03 01:21:38;;;;;;;44.22;23.67;;;;;;;6.71;100.00;97068.72;5046657;28;20108;-83
2021/11/03 01:24:04;;;;;;;46.30;23.90;;;;;;;6.73;100.00;97066.88;5040164;28;20033;-83
2021/11/03 01:26:29;;;;;;;50.17;24.23;;;;;;;6.80;100.00;97089.50;5041322;28;20094;-82
2021/11/03 01:28:55;;;;;;;49.75;25.98;;;;;;;6.71;100.00;97073.19;5026359;28;20488;-83
2021/11/03 01:31:21;;;;;;;52.70;24.88;;;;;;;6.68;100.00;97065.38;5027610;28;20059;-83
2021/11/03 01:33:46;;;;;;;56.60;25.17;;;;;;;6.57;100.00;97065.97;5038809;28;20027;-82
2021/11/03 01:36:12;;;;;;;47.60;24.08;;;;;;;6.61;100.00;97075.50;5029561;28;20021;-81
2021/11/03 01:38:38;;;;;;;51.17;24.35;;;;;;;6.52;100.00;97068.03;5021968;28;20124;-84
2021/11/03 01:41:04;;;;;;;46.00;24.17;;;;;;;6.61;100.00;97080.81;5032492;28;20025;-83
2021/11/03 01:43:47;;;;;;;46.17;23.50;;;;;;;6.59;100.00;97085.34;5036335;28;20024;-83
2021/11/03 01:46:18;;;;;;;49.80;23.67;;;;;;;6.71;100.00;97091.78;5046999;28;20064;-83
2021/11/03 01:48:44;;;;;;;45.65;24.20;;;;;;;6.68;100.00;97089.28;5042840;28;20438;-82
2021/11/03 01:51:40;;;;;;;42.03;23.33;;;;;;;6.69;100.00;97086.56;5046870;28;20028;-82
2021/11/03 01:54:09;;;;;;;45.63;24.42;;;;;;;6.76;100.00;97109.22;5036474;28;20090;-81
2021/11/03 01:56:36;;;;;;;45.33;24.05;;;;;;;6.73;100.00;97103.22;5019610;28;20025;-82
2021/11/03 01:59:15;;;;;;;49.75;25.33;;;;;;;6.68;100.00;97099.91;5029724;28;20029;-82
2021/11/03 02:01:41;;;;;;;45.40;23.42;;;;;;;6.72;100.00;97097.03;5051272;28;20039;-81
2021/11/03 02:04:07;;;;;;;43.97;22.45;;;;;;;6.72;100.00;97096.16;5034285;28;20032;-82
2021/11/03 02:06:33;;;;;;;48.58;25.48;;;;;;;6.76;100.00;97103.03;5039522;28;20036;-84
2021/11/03 02:08:58;;;;;;;49.95;27.05;;;;;;;6.76;100.00;97103.03;5033363;28;20080;-83
2021/11/03 02:11:25;;;;;;;38.53;22.35;;;;;;;6.75;100.00;97104.84;5046015;28;20028;-82
2021/11/03 02:13:51;;;;;;;55.78;28.52;;;;;;;6.71;100.00;97113.91;5037972;28;20365;-82
2021/11/03 02:16:18;;;;;;;47.20;25.05;;;;;;;6.64;100.00;97114.34;5033572;28;20111;-83
2021/11/03 02:18:45;;;;;;;44.28;23.17;;;;;;;6.53;100.00;97130.84;5033291;28;20024;-82
2021/11/03 02:21:14;;;;;;;40.80;21.95;;;;;;;6.50;100.00;97120.38;5027926;28;20021;-84
2021/11/03 02:24:06;;;;;;;45.58;22.52;;;;;;;6.46;100.00;97129.47;5041218;28;20081;-83
2021/11/03 02:26:37;;;;;;;47.70;24.20;;;;;;;6.55;100.00;97136.94;5034872;28;20028;-83
2021/11/03 02:29:06;;;;;;;42.78;23.23;;;;;;;6.55;100.00;97134.28;5055078;28;20028;-83
2021/11/03 02:31:41;;;;;;;43.17;22.90;;;;;;;6.52;100.00;97151.22;5040848;28;20548;-82
2021/11/03 02:34:10;;;;;;;44.25;22.48;;;;;;;6.39;100.00;97136.03;5037139;28;20020;-83
2021/11/03 02:36:50;;;;;;;37.83;20.40;;;;;;;6.56;100.00;97149.25;5039313;28;20044;-83
2021/11/03 02:39:18;;;;;;;40.00;20.00;;;;;;;6.68;100.00;97135.34;5049862;28;20399;-83
2021/11/03 02:41:43;;;;;;;32.90;17.67;;;;;;;6.88;100.00;97129.81;5054065;28;20037;-83
2021/11/03 02:44:13;;;;;;;26.73;13.30;;;;;;;7.26;100.00;97145.50;5038143;28;20055;-83
2021/11/03 02:46:39;;;;;;;28.05;15.70;;;;;;;7.48;100.00;97148.66;5033477;28;20028;-82
2021/11/03 02:49:15;;;;;;;37.13;19.50;;;;;;;7.42;100.00;97154.31;5036957;28;20033;-84
2021/11/03 02:51:43;;;;;;;38.50;19.83;;;;;;;7.16;100.00;97158.44;5064478;28;20051;-83
2021/11/03 02:54:12;;;;;;;34.50;19.23;;;;;;;6.93;100.00;97148.16;5031780;28;20033;-83
2021/11/03 02:56:44;;;;;;;40.17;20.83;;;;;;;6.83;100.00;97158.44;5048792;28;20028;-83
2021/11/03 02:59:11;;;;;;;37.45;20.35;;;;;;;6.78;100.00;97167.59;5040432;28;20033;-84
2021/11/03 03:01:42;;;;;;;41.20;20.88;;;;;;;6.71;100.00;97169.72;5056902;28;20047;-83
2021/11/03 03:04:14;;;;;;;35.75;18.58;;;;;;;6.55;100.00;97139.59;5055808;28;20403;-82
2021/11/03 03:06:43;;;;;;;36.00;18.80;;;;;;;6.47;100.00;97141.78;5036410;28;20051;-82
2021/11/03 03:09:09;;;;;;;38.15;19.40;;;;;;;6.43;100.00;97148.19;5034659;28;20028;-81
2021/11/03 03:11:37;;;;;;;44.70;20.55;;;;;;;6.45;100.00;97156.94;5041964;28;20495;-83
2021/11/03 03:14:06;;;;;;;33.53;19.38;;;;;;;6.40;100.00;97159.81;5040045;28;20116;-83
2021/11/03 03:16:33;;;;;;;35.60;19.55;;;;;;;6.30;100.00;97157.75;5031312;28;20102;-83
2021/11/03 03:18:59;;;;;;;37.28;20.95;;;;;;;6.24;100.00;97164.22;5024766;28;20067;-82
2021/11/03 03:21:24;;;;;;;37.03;21.10;;;;;;;6.21;100.00;97163.53;5038355;28;20021;-84
2021/11/03 03:23:51;;;;;;;40.22;19.05;;;;;;;6.15;100.00;97177.13;5039794;28;20115;-83
2021/11/03 03:26:19;;;;;;;32.97;18.25;;;;;;;5.94;100.00;97174.56;5035436;28;20194;-83
2021/11/03 03:28:45;;;;;;;41.25;20.45;;;;;;;5.89;100.00;97173.97;5024077;28;20381;-81
2021/11/03 03:31:13;;;;;;;42.25;20.58;;;;;;;5.85;100.00;97174.13;5023502;28;20036;-83
2021/11/03 03:33:38;;;;;;;44.95;21.48;;;;;;;5.76;100.00;97172.78;5019916;28;20103;-83
2021/11/03 03:36:05;;;;;;;47.92;23.95;;;;;;;5.80;100.00;97190.28;5028202;28;20048;-82
2021/11/03 03:38:32;;;;;;;43.80;23.02;;;;;;;5.77;100.00;97185.13;5046618;28;20552;-84
2021/11/03 03:40:57;;;;;;;42.08;22.75;;;;;;;5.76;100.00;97178.09;5036244;28;20029;-83
2021/11/03 03:43:23;;;;;;;42.97;23.17;;;;;;;5.77;100.00;97187.78;5037132;28;20407;-84
2021/11/03 03:45:49;;;;;;;49.42;22.92;;;;;;;5.85;100.00;97192.72;5027103;28;20057;-84
2021/11/03 03:48:15;;;;;;;39.72;22.95;;;;;;;5.74;100.00;97190.59;5052779;28;20063;-85
2021/11/03 03:50:41;;;;;;;41.00;22.33;;;;;;;5.80;100.00;97195.59;5036043;28;20021;-83
2021/11/03 03:53:06;;;;;;;46.83;23.80;;;;;;;5.74;100.00;97184.44;5019364;28;20037;-81
2021/11/03 03:55:32;;;;;;;43.75;22.70;;;;;;;5.77;100.00;97185.13;5027513;28;20043;-84
2021/11/03 03:57:58;;;;;;;53.42;25.08;;;;;;;5.83;100.00;97208.72;5049681;28;20090;-84
2021/11/03 04:00:24;;;;;;;51.95;24.60;;;;;;;5.81;100.00;97205.28;5038711;28;20031;-84
2021/11/03 04:02:52;;;;;;;45.35;24.08;;;;;;;5.83;100.00;97206.06;5026238;28;20112;-83
2021/11/03 04:05:19;;;;;;;56.50;25.40;;;;;;;5.78;100.00;97205.41;5028651;28;20036;-84
2021/11/03 04:07:44;;;;;;;58.22;28.23;;;;;;;5.79;100.00;97208.94;5039416;28;20472;-83
2021/11/03 04:10:10;;;;;;;56.10;28.63;;;;;;;5.87;100.00;97213.00;5034122;28;20059;-83
2021/11/03 04:12:36;;;;;;;55.55;27.23;;;;;;;5.78;100.00;97196.63;5020088;28;20423;-82
2021/11/03 04:15:03;;;;;;;55.95;27.73;;;;;;;5.86;100.00;97213.91;5034522;28;20036;-83
2021/11/03 04:17:28;;;;;;;54.80;27.38;;;;;;;5.85;100.00;97209.53;5042227;28;20065;-82
2021/11/03 04:19:54;;;;;;;51.45;27.40;;;;;;;5.86;100.00;97226.31;5026556;28;20059;-82
2021/11/03 04:22:20;;;;;;;57.17;26.52;;;;;;;5.89;100.00;97226.16;5059774;28;20043;-83
2021/11/03 04:24:45;;;;;;;54.38;27.58;;;;;;;5.86;100.00;97208.59;5027639;28;20024;-82
2021/11/03 04:27:11;;;;;;;57.70;29.92;;;;;;;5.92;100.00;97220.72;5033048;28;20431;-82
2021/11/03 04:29:36;;;;;;;57.90;29.58;;;;;;;5.95;100.00;97226.72;5022431;28;20032;-84
2021/11/03 04:32:03;;;;;;;56.90;28.20;;;;;;;5.93;100.00;97227.75;5030276;28;20035;-82
2021/11/03 04:34:28;;;;;;;58.45;31.38;;;;;;;5.96;100.00;97228.47;5032752;28;20032;-81
2021/11/03 04:36:54;;;;;;;53.42;29.08;;;;;;;5.94;100.00;97218.84;5022697;28;20024;-82
2021/11/03 04:39:23;;;;;;;65.40;31.95;;;;;;;5.95;100.00;97224.09;5025730;28;20025;-82
2021/11/03 04:41:49;;;;;;;54.30;28.35;;;;;;;5.81;100.00;97207.94;5048406;28;20025;-83
2021/11/03 04:44:14;;;;;;;60.00;27.67;;;;;;;5.89;100.00;97237.66;5055454;28;20049;-83
2021/11/03 04:46:40;;;;;;;48.88;27.02;;;;;;;5.85;100.00;97225.47;5028452;28;20400;-84
2021/11/03 04:49:06;;;;;;;47.25;26.48;;;;;;;5.92;100.00;97240.16;5051082;28;20031;-82
2021/11/03 04:51:32;;;;;;;56.42;27.65;;;;;;;5.81;100.00;97229.19;5032558;28;20029;-82
2021/11/03 04:53:59;;;;;;;54.00;27.67;;;;;;;5.79;100.00;97231.03;5037317;28;20119;-83
2021/11/03 04:56:28;;;;;;;52.03;25.23;;;;;;;5.71;100.00;97238.50;5034503;28;20023;-83
2021/11/03 04:58:53;;;;;;;56.95;27.00;;;;;;;5.69;100.00;97244.81;5033995;28;20408;-83
2021/11/03 05:01:24;;;;;;;47.08;25.13;;;;;;;5.76;100.00;97257.72;5021738;28;20112;-84
2021/11/03 05:03:51;;;;;;;46.00;24.48;;;;;;;5.72;100.00;97261.44;5026613;28;20488;-84
2021/11/03 05:06:19;;;;;;;57.78;27.20;;;;;;;5.65;100.00;97256.50;5048316;28;20020;-83
2021/11/03 05:08:45;;;;;;;48.45;25.95;;;;;;;5.59;100.00;97259.44;5037349;28;20056;-83
2021/11/03 05:11:11;;;;;;;56.47;26.63;;;;;;;5.59;100.00;97262.97;5060244;28;20474;-83
2021/11/03 05:13:36;;;;;;;55.22;29.63;;;;;;;5.55;100.00;97253.41;5033797;28;20029;-82
2021/11/03 05:16:03;;;;;;;60.08;28.27;;;;;;;5.54;100.00;97257.00;5039172;28;20067;-83
2021/11/03 05:18:28;;;;;;;55.15;27.35;;;;;;;5.52;100.00;97264.16;5031898;28;20039;-80
2021/11/03 05:20:54;;;;;;;48.17;25.42;;;;;;;5.45;100.00;97270.69;5037338;28;20020;-82
2021/11/03 05:23:24;;;;;;;49.53;26.55;;;;;;;5.48;100.00;97283.81;5037426;28;20025;-83
2021/11/03 05:25:51;;;;;;;46.17;26.00;;;;;;;5.53;100.00;97287.13;5054695;28;20099;-82
2021/11/03 05:28:18;;;;;;;41.47;22.55;;;;;;;5.54;100.00;97283.53;5047317;28;21900;-81
2021/11/03 05:30:43;;;;;;;35.38;20.27;;;;;;;5.51;100.00;97288.13;5044967;28;20111;-82
2021/11/03 05:33:09;;;;;;;41.92;20.60;;;;;;;5.58;100.00;97287.75;5034795;28;20033;-82
2021/11/03 05:35:35;;;;;;;46.28;22.92;;;;;;;5.63;100.00;97291.03;5029791;28;20056;-82
2021/11/03 05:38:00;;;;;;;41.75;21.33;;;;;;;5.66;100.00;97287.41;5017223;28;20029;-82
2021/11/03 05:40:28;;;;;;;39.35;21.42;;;;;;;5.77;100.00;97290.41;5024333;28;20108;-83
2021/11/03 05:42:54;;;;;;;46.95;24.98;;;;;;;5.72;100.00;97285.31;5034519;28;20036;-83
2021/11/03 05:45:20;;;;;;;50.63;28.08;;;;;;;5.85;100.00;97307.72;5045518;28;20393;-83
2021/11/03 05:47:46;;;;;;;66.15;37.13;;;;;;;5.99;100.00;97320.34;5051262;28;20029;-82
2021/11/03 05:50:18;;;;;;;77.50;43.33;;;;;;;6.13;100.00;97314.38;5051665;28;20029;-83
2021/11/03 05:52:44;;;;;;;70.15;38.13;;;;;;;6.21;100.00;97322.84;5046615;28;20067;-83
2021/11/03 05:55:11;;;;;;;72.55;38.35;;;;;;;6.32;100.00;97316.06;5045732;28;20028;-83
2021/11/03 05:57:38;;;;;;;74.22;35.35;;;;;;;6.75;100.00;97320.13;5031077;28;20024;-80
2021/11/03 06:00:16;;;;;;;73.65;35.22;;;;;;;7.49;100.00;97326.00;5040423;28;20022;-82
2021/11/03 06:02:42;;;;;;;81.75;33.10;;;;;;;7.91;100.00;97315.69;5046163;28;20056;-84
2021/11/03 06:05:09;;;;;;;66.38;33.10;;;;;;;9.00;100.00;97330.75;5028743;28;20021;-85
2021/11/03 06:07:34;;;;;;;64.75;34.58;;;;;;;11.47;100.00;97346.88;5029308;28;20154;-84
2021/11/03 06:10:03;;;;;;;60.38;32.60;;;;;;;13.53;100.00;97340.63;5035275;28;20048;-84
2021/11/03 06:12:28;;;;;;;51.65;29.60;;;;;;;15.48;79.47;97353.47;5030416;28;20531;-86
2021/11/03 06:14:54;;;;;;;47.47;26.70;;;;;;;16.76;66.52;97353.91;5051446;28;20056;-85
2021/11/03 06:17:20;;;;;;;45.55;26.77;;;;;;;18.17;61.50;97365.06;5032987;28;20025;-86
2021/11/03 06:19:45;;;;;;;52.25;27.40;;;;;;;19.12;52.43;97347.56;5028640;28;20092;-83
2021/11/03 06:22:11;;;;;;;76.28;40.70;;;;;;;19.84;48.93;97317.56;5019654;28;20532;-84
2021/11/03 06:24:37;;;;;;;88.43;46.53;;;;;;;20.25;45.82;97323.28;5023667;28;20037;-83
2021/11/03 06:27:03;;;;;;;90.13;50.85;;;;;;;20.47;45.34;97314.59;5037095;28;20076;-83
2021/11/03 06:29:29;;;;;;;90.82;54.00;;;;;;;20.72;44.78;97330.03;5059333;28;20520;-84
2021/11/03 06:31:54;;;;;;;116.20;68.50;;;;;;;20.38;45.35;97310.16;5026318;28;20071;-83
2021/11/03 06:34:20;;;;;;;105.38;62.63;;;;;;;20.94;44.86;97337.59;5031715;28;20120;-85
2021/11/03 06:36:46;;;;;;;97.53;60.95;;;;;;;21.44;43.38;97340.28;5040495;28;20467;-83
2021/11/03 06:39:12;;;;;;;133.38;86.15;;;;;;;21.76;42.40;97339.50;5048421;28;20143;-83
2021/11/03 06:41:38;;;;;;;147.98;96.03;;;;;;;21.75;42.61;97324.16;5028799;28;20048;-83
2021/11/03 06:44:04;;;;;;;125.15;75.72;;;;;;;22.17;41.93;97337.63;5050654;28;20408;-84
2021/11/03 06:46:30;;;;;;;118.00;69.88;;;;;;;22.84;40.97;97344.47;5031403;28;20033;-85
2021/11/03 06:48:56;;;;;;;122.32;75.82;;;;;;;23.28;39.54;97316.66;5025620;28;20130;-83
2021/11/03 06:51:22;;;;;;;149.50;99.28;;;;;;;23.79;38.64;97326.91;5043571;28;20029;-84
2021/11/03 06:53:48;;;;;;;132.32;88.00;;;;;;;24.41;37.85;97335.75;5019584;28;20464;-86
2021/11/03 06:56:13;;;;;;;141.32;94.40;;;;;;;24.15;38.16;97352.56;5027181;28;20035;-82
2021/11/03 06:58:39;;;;;;;167.25;110.07;;;;;;;24.19;38.53;97348.44;5034092;28;20036;-84
2021/11/03 07:01:07;;;;;;;169.50;112.40;;;;;;;24.36;38.03;97337.38;5053419;28;20039;-82
2021/11/03 07:03:33;;;;;;;169.73;109.47;;;;;;;23.97;38.36;97346.56;5027768;28;20032;-84
2021/11/03 07:05:59;;;;;;;74.57;50.13;;;;;;;23.92;38.05;97346.25;5043797;28;20113;-83
2021/11/03 07:08:25;;;;;;;100.40;61.70;;;;;;;24.00;38.88;97348.91;5043259;28;20568;-83
2021/11/03 07:10:54;;;;;;;67.22;42.22;;;;;;;23.64;39.12;97356.03;5035134;28;20104;-85
2021/11/03 07:13:21;;;;;;;55.65;38.08;;;;;;;23.38;39.50;97356.31;5027886;28;20063;-84
2021/11/03 07:15:48;;;;;;;52.92;26.25;;;;;;;22.53;40.91;97374.38;5019170;28;20048;-84
2021/11/03 07:18:14;;;;;;;67.70;29.83;;;;;;;22.95;41.19;97378.72;5033313;28;20029;-85
2021/11/03 07:20:42;;;;;;;52.28;29.33;;;;;;;23.68;40.16;97371.03;5044163;28;20389;-84
2021/11/03 07:23:10;;;;;;;34.40;22.95;;;;;;;23.87;39.27;97381.47;5044691;28;20033;-74
2021/11/03 07:25:35;;;;;;;31.52;19.88;;;;;;;24.06;38.87;97369.19;5031696;28;20032;-73
2021/11/03 07:28:01;;;;;;;29.85;20.15;;;;;;;24.21;38.67;97365.50;5037970;28;20041;-81
2021/11/03 07:30:29;;;;;;;34.83;24.23;;;;;;;23.91;39.64;97374.63;5014169;28;20025;-77
2021/11/03 07:32:55;;;;;;;30.52;19.90;;;;;;;24.00;40.02;97380.84;5020928;28;20062;-79
2021/11/03 07:35:21;;;;;;;30.98;20.58;;;;;;;24.55;39.13;97361.44;5029779;28;20025;-78
2021/11/03 07:37:47;;;;;;;42.25;28.17;;;;;;;25.10;38.20;97359.09;5039463;28;20082;-77
2021/11/03 07:40:16;;;;;;;47.92;28.98;;;;;;;24.37;39.17;97363.66;5014442;28;20060;-77
2021/11/03 07:42:42;;;;;;;38.28;24.90;;;;;;;24.43;39.47;97369.22;5044683;28;20029;-77
2021/11/03 07:45:09;;;;;;;33.13;22.02;;;;;;;24.70;38.38;97373.25;5015077;28;20024;-77
2021/11/03 07:47:35;;;;;;;33.28;21.88;;;;;;;24.92;38.30;97372.31;5044773;28;20035;-77
2021/11/03 07:50:01;;;;;;;17.63;13.32;;;;;;;24.67;38.26;97376.38;5023026;28;20424;-77
2021/11/03 07:52:27;;;;;;;16.45;11.88;;;;;;;24.15;38.65;97379.91;5047522;28;20028;-77
2021/11/03 07:54:53;;;;;;;15.40;10.57;;;;;;;24.26;38.89;97390.44;5045903;28;20033;-77
2021/11/03 07:57:19;;;;;;;13.85;9.60;;;;;;;24.13;38.38;97381.13;5046561;28;20021;-76
2021/11/03 07:59:45;;;;;;;16.90;9.88;;;;;;;24.61;37.58;97393.53;5031577;28;20035;-73
2021/11/03 08:02:11;;;;;;;22.00;13.93;;;;;;;25.27;37.54;97396.22;5048138;28;20028;-74
2021/11/03 08:04:36;;;;;;;22.73;13.93;;;;;;;25.68;37.01;97393.81;5047826;28;20043;-73
2021/11/03 08:07:02;;;;;;;21.85;12.55;;;;;;;25.90;36.04;97383.72;5045930;28;20040;-72
2021/11/03 08:09:28;;;;;;;23.00;13.05;;;;;;;26.18;36.09;97384.66;5029252;28;20480;-73
2021/11/03 08:11:58;;;;;;;18.05;10.10;;;;;;;26.24;35.27;97388.53;5028121;28;20029;-72
2021/11/03 08:14:29;;;;;;;14.68;10.63;;;;;;;26.58;35.09;97393.25;5028258;28;20029;-72
2021/11/03 08:16:58;;;;;;;15.00;10.48;;;;;;;26.27;35.04;97388.13;5029096;28;20028;-73
2021/11/03 08:19:29;;;;;;;16.50;11.40;;;;;;;26.61;34.64;97379.13;5034016;28;20531;-72
2021/11/03 08:22:11;;;;;;;16.27;11.82;;;;;;;27.14;34.18;97378.44;5027627;28;20032;-73
2021/11/03 08:24:37;;;;;;;45.13;18.60;;;;;;;27.31;34.47;97381.72;5037209;28;20033;-72
2021/11/03 08:27:04;;;;;;;21.55;14.25;;;;;;;27.21;34.22;97384.81;5030446;28;20053;-72
2021/11/03 08:29:29;;;;;;;17.83;13.02;;;;;;;26.40;35.31;97377.25;5046837;28;20124;-73
2021/11/03 08:31:56;;;;;;;19.45;13.10;;;;;;;26.82;35.05;97376.34;5048441;28;20021;-73
2021/11/03 08:34:24;;;;;;;47.60;30.70;;;;;;;26.26;35.66;97362.59;5047130;28;20031;-73
2021/11/03 08:36:50;;;;;;;21.40;13.02;;;;;;;26.64;35.33;97365.00;5063617;28;20377;-73
2021/11/03 08:39:16;;;;;;;20.77;12.95;;;;;;;27.57;33.51;97356.25;5030003;28;20059;-73
2021/11/03 08:41:42;;;;;;;21.33;13.38;;;;;;;28.06;32.36;97342.22;5046947;28;20033;-72
2021/11/03 08:44:08;;;;;;;20.75;13.38;;;;;;;28.93;31.70;97349.22;5029890;28;20040;-73
2021/11/03 08:46:34;;;;;;;25.20;14.20;;;;;;;28.77;31.66;97335.91;5051342;28;20033;-73
2021/11/03 08:49:01;;;;;;;26.05;15.65;;;;;;;29.30;30.93;97344.91;5043612;28;20022;-73
2021/11/03 08:51:33;;;;;;;22.38;14.30;;;;;;;29.78;30.17;97342.53;5012277;28;20059;-73
2021/11/03 08:54:01;;;;;;;28.25;12.77;;;;;;;28.97;30.61;97338.63;5041661;28;20407;-73
2021/11/03 08:56:27;;;;;;;25.70;12.00;;;;;;;28.79;30.66;97338.44;5046588;28;20492;-73
2021/11/03 08:58:54;;;;;;;20.45;12.57;;;;;;;28.84;30.45;97327.63;5029449;28;20040;-74
2021/11/03 09:01:21;;;;;;;24.13;10.75;;;;;;;28.60;31.22;97325.53;5046535;28;20086;-73
2021/11/03 09:03:47;;;;;;;18.10;9.85;;;;;;;29.49;29.38;97310.06;5033306;28;20069;-73
2021/11/03 09:06:13;;;;;;;17.65;10.70;;;;;;;29.82;29.07;97309.88;5026661;28;20134;-74
2021/11/03 09:08:40;;;;;;;15.20;11.10;;;;;;;30.34;28.72;97319.69;5030856;28;20500;-73
2021/11/03 09:11:07;;;;;;;17.98;10.35;;;;;;;30.33;28.83;97318.84;5022633;28;20095;-76
2021/11/03 09:13:34;;;;;;;21.67;12.38;;;;;;;30.22;28.34;97311.28;5045701;28;20028;-77
2021/11/03 09:16:01;;;;;;;29.38;15.85;;;;;;;29.25;30.42;97308.91;5024445;28;20476;-76
2021/11/03 09:18:28;;;;;;;20.67;12.20;;;;;;;28.82;29.77;97313.25;5019536;28;20048;-76
2021/11/03 09:20:55;;;;;;;21.15;11.98;;;;;;;28.42;30.14;97307.75;5010375;28;20033;-76
2021/11/03 09:23:22;;;;;;;26.92;13.68;;;;;;;29.13;29.87;97307.00;5041819;28;20064;-75
2021/11/03 09:25:48;;;;;;;25.92;14.60;;;;;;;29.47;29.49;97307.50;5026050;28;20412;-76
2021/11/03 09:28:14;;;;;;;17.25;13.13;;;;;;;29.16;29.71;97307.41;5034401;28;20087;-72
2021/11/03 09:30:40;;;;;;;22.48;13.00;;;;;;;28.74;29.23;97299.69;5052755;28;20156;-73
2021/11/03 09:33:08;;;;;;;20.63;13.68;;;;;;;28.88;29.07;97290.34;5026583;28;20037;-74
2021/11/03 09:35:39;;;;;;;17.25;12.18;;;;;;;28.59;29.55;97290.78;5026407;28;20499;-73
2021/11/03 09:38:05;;;;;;;;;;;;;;;28.97;29.58;97305.56;5029108;28;20037;-73
2021/11/03 09:40:51;;;;;;;21.02;13.82;;;;;;;29.05;29.29;97288.78;5046031;28;20062;-72
2021/11/03 09:43:32;;;;;;;29.58;14.32;;;;;;;27.55;31.41;97296.00;5046038;28;20044;-72
2021/11/03 09:46:00;;;;;;;29.17;15.15;;;;;;;26.99;32.63;97314.56;5062931;28;20096;-72
2021/11/03 09:48:44;;;;;;;29.30;14.43;;;;;;;28.28;31.64;97305.22;5047440;28;20096;-74
2021/11/03 09:51:17;;;;;;;24.35;13.82;;;;;;;29.15;30.42;97297.44;5046312;28;20056;-73
2021/11/03 09:53:53;;;;;;;26.92;14.73;;;;;;;28.74;31.11;97294.16;5046211;28;20067;-74
2021/11/03 09:56:25;;;;;;;28.05;13.75;;;;;;;27.11;33.23;97301.09;5045876;28;20029;-73
2021/11/03 09:59:09;;;;;;;20.17;13.75;;;;;;;26.61;34.94;97303.09;5029521;28;20032;-72
2021/11/03 10:01:43;;;;;;;45.17;16.58;;;;;;;26.83;34.63;97292.91;5047326;28;20156;-73
2021/11/03 10:04:25;;;;;;;42.65;15.57;;;;;;;27.42;33.60;97288.56;5029331;28;20033;-73
2021/11/03 10:06:59;;;;;;;24.65;14.07;;;;;;;28.16;32.40;97274.75;5044493;28;20029;-72
2021/11/03 10:09:38;;;;;;;26.17;13.52;;;;;;;28.46;31.73;97259.47;5028879;28;20163;-74
2021/11/03 10:12:12;;;;;;;21.17;13.13;;;;;;;27.95;31.09;97244.66;5043154;28;20502;-73
2021/11/03 10:14:39;;;;;;;17.13;10.35;;;;;;;28.49;30.44;97242.53;5039854;28;20041;-84
2021/11/03 10:17:27;;;;;;;15.05;10.27;;;;;;;28.49;29.30;97236.16;5044274;28;20452;-81
2021/11/03 10:19:54;;;;;;;27.63;12.07;;;;;;;28.55;29.02;97217.97;5044579;28;20453;-75
2021/11/03 10:22:31;;;;;;;26.30;11.10;;;;;;;28.20;29.76;97217.38;5040255;28;20492;-73
2021/11/03 10:25:06;;;;;;;15.07;8.27;;;;;;;27.13;29.88;97211.97;5045257;28;20033;-73
2021/11/03 10:27:45;;;;;;;18.45;10.00;;;;;;;27.12;30.46;97210.25;5061461;28;20393;-74
2021/11/03 10:30:30;;;;;;;27.30;11.27;;;;;;;27.96;29.84;97210.63;5051839;28;20442;-75
2021/11/03 10:32:57;;;;;;;21.13;8.73;;;;;;;28.43;28.76;97206.75;5035625;28;20463;-74
2021/11/03 10:35:27;;;;;;;8.07;5.63;;;;;;;28.63;28.13;97201.19;5016328;28;20052;-75
2021/11/03 10:38:10;;;;;;;9.02;4.65;;;;;;;29.18;26.33;97181.28;5051624;28;20060;-75
2021/11/03 10:40:44;;;;;;;9.60;5.32;;;;;;;29.94;26.08;97181.19;5050362;28;20044;-75
2021/11/03 10:43:23;;;;;;;10.57;4.72;;;;;;;29.57;25.17;97169.16;5049658;28;20403;-74
2021/11/03 10:45:58;;;;;;;9.15;4.70;;;;;;;29.68;25.42;97178.63;5050776;28;20029;-74
2021/11/03 10:48:27;;;;;;;12.55;4.60;;;;;;;29.74;25.45;97174.97;5019638;28;20091;-74
2021/11/03 10:50:56;;;;;;;15.73;5.18;;;;;;;29.58;24.93;97182.75;5052133;28;20506;-74
2021/11/03 10:53:25;;;;;;;8.75;4.50;;;;;;;29.12;25.14;97175.81;5061847;28;20033;-77
2021/11/03 10:55:59;;;;;;;8.75;4.00;;;;;;;28.94;26.97;97187.56;5029917;28;20522;-75
2021/11/03 10:58:51;;;;;;;7.68;4.22;;;;;;;28.35;27.66;97188.56;5033731;28;20048;-78
2021/11/03 11:01:23;;;;;;;11.65;3.17;;;;;;;27.43;26.24;97183.09;5025267;28;20479;-75
2021/11/03 11:04:11;;;;;;;18.55;6.00;;;;;;;26.94;29.69;97185.28;5032580;28;20048;-75
2021/11/03 11:06:50;;;;;;;20.50;5.30;;;;;;;26.95;28.78;97184.22;5032794;28;20511;-73
2021/11/03 11:09:28;;;;;;;16.95;4.68;;;;;;;27.28;27.70;97190.66;5050669;28;20029;-73
2021/11/03 11:11:59;;;;;;;7.43;4.47;;;;;;;27.25;27.26;97188.31;5063164;28;20032;-73
2021/11/03 11:14:26;;;;;;;6.30;3.17;;;;;;;27.01;26.56;97185.31;5035881;28;21477;-75
2021/11/03 11:16:52;;;;;;;8.40;3.67;;;;;;;26.39;27.56;97180.78;5035914;28;20028;-75
2021/11/03 11:19:49;;;;;;;8.43;4.13;;;;;;;25.99;29.60;97187.91;5066219;28;20044;-78
2021/11/03 11:22:41;;;;;;;5.22;2.50;;;;;;;26.52;27.46;97189.06;5035780;28;20033;-73
2021/11/03 11:25:14;;;;;;;4.78;2.10;;;;;;;27.29;28.07;97186.81;5018601;28;20021;-73
2021/11/03 11:27:49;;;;;;;4.35;2.00;;;;;;;28.21;25.33;97181.38;5052642;28;20052;-73
2021/11/03 11:30:18;;;;;;;4.95;3.90;;;;;;;28.32;24.49;97182.66;5034552;28;20041;-74
2021/11/03 11:32:59;;;;;;;3.88;2.30;;;;;;;28.14;25.49;97188.84;5034997;28;20543;-72